KMSO/MSO METAR and TAF weather

Enter ICAO airport designator
Station Type Date Time Source
KMSO METAR 2021/05/14 06:53 UTC NOAA

KMSO 140653Z AUTO 00000KT 10SM CLR 09/01 A3008 RMK AO2 SLP176 T00940006 402390067


Station Type Date Time Source
KMSO Decoded METAR 2021/05/14 06:53 UTC NOAA

MISSOULA INTERNATIONAL AIRPORT , MT, United States (KMSO) 46-55N 114-06W 975M
May 14, 2021 - 02:53 AM EDT / 2021.05.14 0653 UTC
Wind: Calm:0
Visibility: 10 mile(s):0
Sky conditions: clear
Temperature: 48.9 F (9.4 C)
Dew Point: 33.1 F (0.6 C)
Relative Humidity: 54%
Pressure (altimeter): 30.08 in. Hg (1018 hPa)
ob: KMSO 140653Z AUTO 00000KT 10SM CLR 09/01 A3008 RMK AO2 SLP176 T00940006 402390067
cycle: 7

Station Type Date Time Source
KMSO TAF 2021/05/14 06:22 UTC NOAA

TAF KMSO 140520Z 1406/1506 33005KT P6SM SCT090
FM142200 33010KT P6SM VCSH BKN100
FM150100 31005KT P6SM SCT100

Example: see airport list